createdAt,value
2018-12-18T00:00:14.179Z,7.97
2018-12-18T00:02:42.965Z,6.97
2018-12-18T00:05:16.706Z,6.90
2018-12-18T00:07:45.148Z,7.23
2018-12-18T00:10:13.704Z,5.73
2018-12-18T00:12:42.080Z,5.80
2018-12-18T00:15:10.692Z,5.87
2018-12-18T00:17:39.174Z,5.23
2018-12-18T00:20:07.683Z,5.87
2018-12-18T00:22:36.059Z,5.77
2018-12-18T00:25:05.199Z,5.83
2018-12-18T00:27:33.656Z,5.40
2018-12-18T00:30:02.067Z,5.03
2018-12-18T00:32:30.430Z,5.83
2018-12-18T00:34:58.831Z,6.27
2018-12-18T00:37:27.188Z,5.93
2018-12-18T00:39:55.548Z,6.03
2018-12-18T00:42:23.936Z,6.20
2018-12-18T00:44:52.307Z,5.73
2018-12-18T00:47:20.691Z,5.00
2018-12-18T00:49:49.054Z,8.40
2018-12-18T00:52:17.443Z,4.90
2018-12-18T00:54:45.802Z,4.53
2018-12-18T00:57:14.188Z,4.53
2018-12-18T00:59:42.550Z,4.30
2018-12-18T01:02:10.926Z,4.33
2018-12-18T01:04:39.323Z,3.60
2018-12-18T01:07:08.759Z,3.73
2018-12-18T01:09:37.312Z,4.30
2018-12-18T01:12:05.836Z,4.33
2018-12-18T01:14:34.324Z,3.87
2018-12-18T01:17:02.961Z,3.40
2018-12-18T01:19:31.460Z,3.53
2018-12-18T01:22:00.107Z,3.40
2018-12-18T01:24:28.723Z,3.87
2018-12-18T01:26:57.114Z,3.80
2018-12-18T01:29:25.494Z,3.27
2018-12-18T01:31:53.995Z,3.27
2018-12-18T01:34:22.369Z,3.37
2018-12-18T01:36:50.759Z,3.23
2018-12-18T01:39:19.124Z,3.13
2018-12-18T01:41:47.499Z,3.20
2018-12-18T01:44:16.168Z,3.40
2018-12-18T01:46:44.566Z,2.73
2018-12-18T01:49:13.063Z,2.97
2018-12-18T01:51:41.471Z,3.40
2018-12-18T01:54:09.960Z,3.70
2018-12-18T01:56:38.351Z,2.93
2018-12-18T01:59:06.716Z,3.20
2018-12-18T02:01:35.107Z,2.90
2018-12-18T02:04:06.156Z,3.40
2018-12-18T02:06:34.735Z,3.07
2018-12-18T02:09:05.520Z,3.40
2018-12-18T02:11:33.891Z,3.23
2018-12-18T02:14:02.878Z,3.00
2018-12-18T02:16:31.348Z,3.20
2018-12-18T02:18:59.940Z,3.20
2018-12-18T02:21:28.337Z,2.90
2018-12-18T02:23:56.704Z,3.00
2018-12-18T02:26:25.091Z,3.60
2018-12-18T02:28:53.457Z,3.80
2018-12-18T02:31:21.859Z,3.37
2018-12-18T02:33:50.225Z,3.10
2018-12-18T02:36:18.605Z,3.30
2018-12-18T02:38:47.000Z,2.83
2018-12-18T02:41:15.455Z,3.33
2018-12-18T02:43:43.836Z,2.80
2018-12-18T02:46:12.193Z,3.67
2018-12-18T02:48:40.571Z,3.37
2018-12-18T02:51:09.023Z,2.87
2018-12-18T02:53:37.412Z,3.03
2018-12-18T02:56:06.013Z,2.80
2018-12-18T02:58:34.410Z,3.30
2018-12-18T03:01:02.793Z,2.93
2018-12-18T03:03:31.417Z,3.33
2018-12-18T03:05:59.936Z,3.10
2018-12-18T03:08:28.337Z,3.03
2018-12-18T03:10:56.722Z,2.60
2018-12-18T03:13:25.123Z,2.80
2018-12-18T03:15:53.527Z,2.80
2018-12-18T03:18:21.911Z,2.93
2018-12-18T03:20:50.948Z,3.10
2018-12-18T03:23:19.340Z,2.93
2018-12-18T03:25:47.711Z,3.00
2018-12-18T03:28:16.112Z,2.80
2018-12-18T03:30:44.494Z,3.07
2018-12-18T03:33:13.003Z,3.33
2018-12-18T03:35:41.408Z,3.13
2018-12-18T03:38:09.822Z,2.60
2018-12-18T03:40:38.211Z,2.97
2018-12-18T03:43:06.604Z,2.77
2018-12-18T03:45:34.983Z,2.83
2018-12-18T03:48:03.365Z,2.83
2018-12-18T03:50:31.755Z,2.60
2018-12-18T03:53:00.116Z,2.80
2018-12-18T03:55:28.515Z,2.80
2018-12-18T03:57:56.885Z,2.80
2018-12-18T04:00:25.382Z,2.70
2018-12-18T04:02:53.747Z,3.53
2018-12-18T04:05:22.144Z,3.90
2018-12-18T04:07:50.515Z,3.40
2018-12-18T04:10:18.908Z,3.27
2018-12-18T04:12:48.234Z,3.60
2018-12-18T04:15:17.269Z,3.60
2018-12-18T04:17:45.653Z,3.30
2018-12-18T04:20:14.755Z,3.93
2018-12-18T04:22:43.215Z,3.73
2018-12-18T04:25:11.752Z,3.97
2018-12-18T04:27:40.133Z,3.50
2018-12-18T04:30:08.870Z,3.80
2018-12-18T04:32:37.333Z,3.47
2018-12-18T04:35:06.140Z,3.33
2018-12-18T04:37:34.662Z,3.43
2018-12-18T04:40:03.098Z,3.50
2018-12-18T04:42:31.479Z,3.20
2018-12-18T04:44:59.849Z,3.23
2018-12-18T04:47:28.249Z,3.30
2018-12-18T04:49:56.619Z,3.77
2018-12-18T04:52:25.012Z,3.50
2018-12-18T04:54:53.403Z,3.53
2018-12-18T04:57:22.686Z,3.57
2018-12-18T04:59:51.169Z,3.40
2018-12-18T05:02:19.793Z,4.03
2018-12-18T05:04:50.503Z,3.30
2018-12-18T05:07:18.815Z,3.67
2018-12-18T05:09:47.460Z,3.60
2018-12-18T05:12:15.864Z,3.40
2018-12-18T05:14:44.233Z,3.53
2018-12-18T05:17:12.642Z,3.97
2018-12-18T05:19:41.622Z,3.50
2018-12-18T05:22:09.992Z,3.70
2018-12-18T05:24:38.379Z,4.77
2018-12-18T05:27:07.492Z,4.07
2018-12-18T05:29:35.872Z,3.60
2018-12-18T05:32:04.253Z,3.90
2018-12-18T05:34:32.646Z,4.37
2018-12-18T05:37:01.015Z,3.90
2018-12-18T05:39:32.543Z,4.17
2018-12-18T05:42:01.087Z,4.10
2018-12-18T05:44:29.615Z,3.93
2018-12-18T05:46:58.095Z,4.23
2018-12-18T05:49:26.645Z,4.57
2018-12-18T05:51:55.501Z,4.77
2018-12-18T05:54:24.555Z,4.17
2018-12-18T05:56:53.243Z,4.53
2018-12-18T05:59:21.745Z,4.07
2018-12-18T06:01:50.240Z,4.50
2018-12-18T06:04:18.785Z,4.10
2018-12-18T06:06:47.352Z,3.77
2018-12-18T06:09:15.928Z,4.20
2018-12-18T06:11:44.443Z,4.53
2018-12-18T06:14:12.911Z,3.93
2018-12-18T06:16:41.613Z,5.07
2018-12-18T06:19:10.143Z,3.90
2018-12-18T06:21:38.632Z,4.13
2018-12-18T06:24:07.141Z,4.40
2018-12-18T06:26:35.626Z,4.10
2018-12-18T06:29:04.112Z,5.30
2018-12-18T06:31:32.619Z,4.63
2018-12-18T06:34:01.099Z,4.60
2018-12-18T06:36:29.606Z,4.57
2018-12-18T06:38:58.593Z,4.87
2018-12-18T06:41:27.083Z,5.10
2018-12-18T06:43:55.579Z,4.43
2018-12-18T06:46:24.044Z,4.33
2018-12-18T06:48:52.403Z,5.43
2018-12-18T06:51:20.791Z,4.20
2018-12-18T06:53:49.198Z,4.43
2018-12-18T06:56:18.179Z,4.40
2018-12-18T06:58:46.548Z,4.63
2018-12-18T07:01:14.957Z,4.23
2018-12-18T07:03:43.317Z,4.43
2018-12-18T07:06:11.719Z,4.30
2018-12-18T07:08:40.072Z,4.57
2018-12-18T07:11:08.443Z,4.90
2018-12-18T07:13:37.048Z,5.20
2018-12-18T07:16:06.462Z,4.70
2018-12-18T07:18:34.828Z,4.43
2018-12-18T07:21:03.212Z,4.63
2018-12-18T07:23:32.191Z,5.43
2018-12-18T07:26:00.580Z,4.83
2018-12-18T07:28:28.956Z,4.50
2018-12-18T07:30:57.469Z,4.20
2018-12-18T07:33:25.843Z,4.33
2018-12-18T07:35:54.328Z,4.30
2018-12-18T07:38:22.707Z,4.27
2018-12-18T07:40:51.131Z,4.20
2018-12-18T07:43:19.519Z,4.30
2018-12-18T07:45:47.903Z,4.60
2018-12-18T07:48:16.280Z,5.10
2018-12-18T07:50:44.659Z,5.40
2018-12-18T07:53:13.064Z,7.17
2018-12-18T07:55:41.429Z,4.93
2018-12-18T07:58:09.821Z,5.37
2018-12-18T08:00:38.190Z,5.27
2018-12-18T08:03:06.583Z,5.30
2018-12-18T08:05:35.023Z,5.40
2018-12-18T08:08:03.414Z,5.60
2018-12-18T08:10:31.783Z,5.10
2018-12-18T08:13:00.170Z,5.67
2018-12-18T08:15:28.572Z,6.50
2018-12-18T08:17:56.979Z,6.60
2018-12-18T08:20:25.350Z,7.00
2018-12-18T08:22:53.748Z,5.93
2018-12-18T08:25:22.243Z,6.10
2018-12-18T08:27:50.635Z,6.13
2018-12-18T08:30:19.006Z,6.20
2018-12-18T08:32:47.400Z,6.00
2018-12-18T08:35:15.766Z,5.97
2018-12-18T08:37:44.149Z,5.40
2018-12-18T08:40:12.578Z,5.53
2018-12-18T08:42:41.433Z,6.00
2018-12-18T08:45:10.047Z,4.63
2018-12-18T08:47:38.465Z,4.93
2018-12-18T08:50:08.437Z,4.90
2018-12-18T08:52:36.849Z,5.33
2018-12-18T08:55:05.826Z,4.90
2018-12-18T08:57:34.379Z,4.73
2018-12-18T09:00:02.935Z,4.80
2018-12-18T09:02:31.372Z,4.03
2018-12-18T09:04:59.744Z,4.30
2018-12-18T09:07:28.123Z,4.57
2018-12-18T09:09:56.511Z,4.93
2018-12-18T09:12:24.909Z,4.20
2018-12-18T09:14:57.339Z,4.67
2018-12-18T09:17:31.433Z,4.63
2018-12-18T09:19:59.805Z,4.13
2018-12-18T09:22:28.197Z,4.13
2018-12-18T09:24:56.677Z,4.53
2018-12-18T09:27:25.065Z,4.20
2018-12-18T09:29:53.433Z,4.13
2018-12-18T09:32:21.801Z,3.93
2018-12-18T09:34:50.173Z,3.40
2018-12-18T09:37:18.552Z,4.03
2018-12-18T09:39:46.911Z,3.80
2018-12-18T09:42:20.574Z,3.73
2018-12-18T09:44:48.932Z,3.70
2018-12-18T09:47:17.299Z,3.80
2018-12-18T09:49:45.683Z,3.43
2018-12-18T09:52:14.081Z,3.80
2018-12-18T09:54:42.511Z,3.67
2018-12-18T09:57:16.204Z,3.87
2018-12-18T09:59:46.204Z,3.70
2018-12-18T10:02:14.680Z,3.70
2018-12-18T10:04:43.351Z,3.90
2018-12-18T10:07:11.726Z,3.33
2018-12-18T10:09:40.101Z,3.60
2018-12-18T10:12:08.528Z,3.97
2018-12-18T10:14:37.463Z,3.30
2018-12-18T10:17:05.875Z,3.93
2018-12-18T10:19:34.286Z,3.53
2018-12-18T10:22:02.664Z,3.57
2018-12-18T10:24:31.041Z,3.50
2018-12-18T10:26:59.417Z,3.57
2018-12-18T10:29:27.799Z,3.50
2018-12-18T10:31:56.175Z,3.50
2018-12-18T10:34:24.579Z,3.87
2018-12-18T10:36:52.939Z,3.70
2018-12-18T10:39:21.847Z,3.17
2018-12-18T10:41:50.927Z,3.50
2018-12-18T10:44:19.333Z,3.43
2018-12-18T10:46:47.722Z,3.00
2018-12-18T10:49:23.688Z,2.93
2018-12-18T10:51:53.173Z,3.57
2018-12-18T10:54:21.581Z,3.50
2018-12-18T10:56:49.960Z,3.47
2018-12-18T10:59:18.350Z,4.00
2018-12-18T11:01:47.983Z,3.13
2018-12-18T11:04:16.722Z,3.00
2018-12-18T11:06:45.095Z,3.57
2018-12-18T11:09:14.140Z,3.30
2018-12-18T11:11:42.614Z,3.27
2018-12-18T11:14:11.095Z,3.17
2018-12-18T11:16:39.511Z,3.60
2018-12-18T11:19:07.952Z,3.63
2018-12-18T11:21:36.341Z,3.50
2018-12-18T11:24:04.952Z,3.10
2018-12-18T11:26:33.324Z,3.37
2018-12-18T11:29:01.715Z,3.40
2018-12-18T11:31:30.108Z,3.00
2018-12-18T11:33:58.499Z,3.13
2018-12-18T11:36:26.871Z,3.00
2018-12-18T11:38:55.289Z,3.40
2018-12-18T11:41:23.664Z,2.67
2018-12-18T11:43:52.062Z,2.90
2018-12-18T11:46:20.438Z,2.63
2018-12-18T11:48:48.820Z,3.13
2018-12-18T11:51:17.183Z,2.60
2018-12-18T11:53:45.587Z,3.10
2018-12-18T11:56:13.939Z,3.03
2018-12-18T11:58:42.366Z,3.07
2018-12-18T12:01:10.930Z,3.00
2018-12-18T12:03:39.326Z,2.83
2018-12-18T12:06:08.250Z,2.80
2018-12-18T12:08:36.618Z,3.20
2018-12-18T12:11:04.996Z,2.80
2018-12-18T12:13:33.480Z,2.90
2018-12-18T12:16:01.879Z,2.80
2018-12-18T12:18:30.258Z,3.00
2018-12-18T12:20:59.234Z,3.10
2018-12-18T12:23:27.641Z,3.20
2018-12-18T12:25:56.040Z,2.77
2018-12-18T12:28:24.415Z,3.70
2018-12-18T12:30:52.792Z,3.80
2018-12-18T12:33:21.187Z,4.03
2018-12-18T12:35:49.587Z,3.73
2018-12-18T12:38:17.956Z,3.87
2018-12-18T12:40:46.350Z,3.83
2018-12-18T12:43:14.742Z,3.80
2018-12-18T12:45:43.126Z,3.90
2018-12-18T12:48:11.496Z,3.67
2018-12-18T12:50:40.348Z,3.90
2018-12-18T12:53:08.705Z,3.53
2018-12-18T12:55:37.143Z,3.27
2018-12-18T12:58:05.516Z,3.30
2018-12-18T13:00:34.020Z,3.03
2018-12-18T13:03:02.402Z,3.57
2018-12-18T13:05:30.796Z,3.50
2018-12-18T13:07:59.177Z,3.00
2018-12-18T13:10:27.565Z,2.90
2018-12-18T13:12:55.963Z,2.27
2018-12-18T13:15:24.637Z,2.30
2018-12-18T13:17:53.028Z,2.57
2018-12-18T13:20:21.405Z,2.20
2018-12-18T13:22:49.776Z,2.03
2018-12-18T13:25:18.563Z,2.40
2018-12-18T13:27:46.939Z,2.17
2018-12-18T13:30:15.344Z,2.40
2018-12-18T13:32:43.714Z,2.27
2018-12-18T13:35:12.203Z,2.20
2018-12-18T13:37:40.557Z,2.33
2018-12-18T13:40:09.419Z,2.07
2018-12-18T13:42:37.771Z,2.17
2018-12-18T13:45:06.618Z,2.27
2018-12-18T13:47:34.987Z,2.70
2018-12-18T13:50:04.233Z,2.90
2018-12-18T13:52:32.683Z,3.20
2018-12-18T13:55:01.064Z,2.80
2018-12-18T13:57:29.439Z,2.77
2018-12-18T13:59:57.815Z,2.80
2018-12-18T14:02:26.191Z,2.90
2018-12-18T14:04:54.568Z,2.90
2018-12-18T14:07:23.069Z,2.70
2018-12-18T14:09:51.601Z,2.70
2018-12-18T14:12:19.967Z,2.90
2018-12-18T14:14:48.331Z,2.90
2018-12-18T14:17:16.907Z,2.47
2018-12-18T14:19:45.271Z,3.10
2018-12-18T14:22:13.671Z,2.73
2018-12-18T14:24:42.074Z,2.60
2018-12-18T14:27:10.603Z,2.60
2018-12-18T14:29:38.979Z,3.00
2018-12-18T14:32:07.371Z,2.70
2018-12-18T14:34:35.755Z,2.67
2018-12-18T14:37:04.161Z,2.40
2018-12-18T14:39:32.545Z,2.23
2018-12-18T14:42:00.911Z,2.47
2018-12-18T14:44:29.304Z,2.90
2018-12-18T14:46:57.699Z,2.67
2018-12-18T14:49:26.067Z,3.00
2018-12-18T14:51:54.479Z,2.23
2018-12-18T14:54:22.979Z,3.10
2018-12-18T14:56:51.371Z,2.60
2018-12-18T14:59:20.066Z,2.67
2018-12-18T15:01:48.456Z,2.67
2018-12-18T15:04:16.882Z,2.43
2018-12-18T15:06:45.373Z,3.40
2018-12-18T15:09:13.770Z,2.90
2018-12-18T15:11:42.179Z,4.13
2018-12-18T15:14:10.557Z,4.80
2018-12-18T15:16:38.994Z,3.80
2018-12-18T15:19:07.372Z,3.50
2018-12-18T15:21:35.760Z,5.20
2018-12-18T15:24:04.279Z,5.30
2018-12-18T15:26:32.714Z,4.00
2018-12-18T15:29:01.110Z,5.53
2018-12-18T15:31:29.512Z,7.80
2018-12-18T15:33:57.928Z,4.70
2018-12-18T15:36:26.324Z,3.97
2018-12-18T15:38:55.127Z,4.43
2018-12-18T15:41:23.507Z,3.90
2018-12-18T15:43:52.566Z,3.73
2018-12-18T15:46:20.944Z,3.20
2018-12-18T15:48:51.123Z,2.73
2018-12-18T15:51:19.507Z,3.27
2018-12-18T15:53:47.868Z,4.10
2018-12-18T15:56:16.314Z,3.67
2018-12-18T15:58:44.676Z,3.63
2018-12-18T16:01:13.123Z,3.40
2018-12-18T16:03:41.490Z,3.63
2018-12-18T16:06:09.871Z,3.57
2018-12-18T16:08:38.235Z,3.50
2018-12-18T16:11:06.627Z,3.40
2018-12-18T16:13:35.001Z,3.87
2018-12-18T16:16:03.859Z,3.33
2018-12-18T16:18:32.211Z,3.47
2018-12-18T16:21:00.652Z,3.50
2018-12-18T16:23:29.463Z,3.50
2018-12-18T16:25:57.927Z,3.60
2018-12-18T16:28:26.291Z,3.70
2018-12-18T16:30:54.691Z,5.07
2018-12-18T16:33:23.948Z,10.37
2018-12-18T16:35:52.339Z,6.33
2018-12-18T16:38:20.783Z,5.70
2018-12-18T16:40:49.143Z,6.17
2018-12-18T16:43:17.563Z,5.20
2018-12-18T16:45:45.926Z,5.00
2018-12-18T16:48:14.415Z,5.33
2018-12-18T16:50:44.498Z,4.50
2018-12-18T16:53:12.893Z,6.00
2018-12-18T16:55:41.382Z,4.50
2018-12-18T16:58:09.815Z,5.57
2018-12-18T17:00:38.195Z,6.43
2018-12-18T17:03:06.616Z,6.50
2018-12-18T17:05:35.084Z,6.90
2018-12-18T17:08:03.615Z,4.17
2018-12-18T17:10:33.268Z,5.40
2018-12-18T17:13:02.021Z,6.53
2018-12-18T17:15:30.426Z,6.63
2018-12-18T17:17:59.017Z,9.30
2018-12-18T17:20:27.493Z,8.70
2018-12-18T17:22:55.980Z,7.10
2018-12-18T17:25:24.395Z,6.53
2018-12-18T17:27:52.776Z,6.90
2018-12-18T17:30:21.138Z,7.50
2018-12-18T17:32:49.526Z,7.30
2018-12-18T17:35:17.942Z,6.90
2018-12-18T17:37:46.346Z,7.30
2018-12-18T17:40:15.078Z,7.67
2018-12-18T17:42:43.552Z,8.00
2018-12-18T17:45:11.978Z,7.90
2018-12-18T17:47:41.416Z,8.47
2018-12-18T17:50:09.924Z,8.60
2018-12-18T17:52:39.020Z,9.63
2018-12-18T17:55:07.783Z,10.00
2018-12-18T17:57:36.454Z,9.97
2018-12-18T18:00:05.638Z,11.33
2018-12-18T18:02:34.806Z,10.47
2018-12-18T18:05:03.241Z,12.33
2018-12-18T18:07:31.640Z,12.07
2018-12-18T18:10:00.614Z,12.00
2018-12-18T18:12:30.148Z,11.07
2018-12-18T18:14:59.664Z,11.77
2018-12-18T18:17:28.151Z,11.97
2018-12-18T18:19:56.625Z,11.97
2018-12-18T18:22:25.035Z,11.43
2018-12-18T18:24:53.498Z,12.27
2018-12-18T18:27:22.276Z,12.67
2018-12-18T18:29:50.705Z,13.07
2018-12-18T18:32:19.744Z,13.43
2018-12-18T18:34:48.150Z,11.97
2018-12-18T18:37:16.792Z,13.03
2018-12-18T18:39:45.281Z,13.07
2018-12-18T18:42:13.671Z,12.63
2018-12-18T18:44:42.320Z,12.67
2018-12-18T18:47:10.731Z,12.90
2018-12-18T18:49:41.167Z,13.53
2018-12-18T18:52:10.087Z,12.57
2018-12-18T18:54:38.467Z,13.03
2018-12-18T18:57:06.878Z,13.10
2018-12-18T18:59:35.364Z,12.70
2018-12-18T19:02:03.825Z,12.90
2018-12-18T19:04:32.467Z,12.00
2018-12-18T19:07:01.864Z,11.90
2018-12-18T19:09:30.303Z,12.17
2018-12-18T19:11:58.795Z,12.00
2018-12-18T19:14:27.748Z,12.57
2018-12-18T19:16:56.292Z,11.37
2018-12-18T19:19:24.711Z,11.83
2018-12-18T19:21:59.750Z,12.20
2018-12-18T19:24:28.176Z,11.80
2018-12-18T19:26:57.641Z,12.47
2018-12-18T19:29:26.442Z,13.50
2018-12-18T19:31:55.584Z,12.50
2018-12-18T19:34:24.871Z,11.93
2018-12-18T19:36:53.750Z,12.77
2018-12-18T19:39:23.508Z,11.27
2018-12-18T19:41:51.888Z,12.20
2018-12-18T19:44:20.302Z,11.70
2018-12-18T19:46:52.326Z,12.70
2018-12-18T19:49:21.292Z,11.60
2018-12-18T19:51:50.181Z,11.47
2018-12-18T19:54:19.913Z,10.43
2018-12-18T19:56:48.693Z,11.37
2018-12-18T19:59:19.605Z,11.27
2018-12-18T20:01:48.495Z,10.50
2018-12-18T20:04:17.469Z,12.20
2018-12-18T20:06:46.586Z,11.50
2018-12-18T20:09:16.084Z,11.20
2018-12-18T20:11:45.025Z,11.60
2018-12-18T20:14:13.817Z,10.67
2018-12-18T20:16:42.526Z,11.53
2018-12-18T20:19:11.285Z,11.00
2018-12-18T20:21:40.276Z,11.57
2018-12-18T20:24:09.824Z,11.80
2018-12-18T20:26:38.667Z,12.37
2018-12-18T20:29:07.575Z,11.10
2018-12-18T20:31:37.393Z,11.37
2018-12-18T20:34:06.300Z,11.73
2018-12-18T20:36:35.049Z,11.33
2018-12-18T20:39:05.503Z,11.83
2018-12-18T20:41:34.433Z,11.90
2018-12-18T20:44:03.284Z,11.37
2018-12-18T20:46:34.092Z,10.70
2018-12-18T20:49:03.302Z,11.07
2018-12-18T20:51:32.166Z,10.90
2018-12-18T20:54:01.466Z,11.03
2018-12-18T20:56:30.996Z,10.00
2018-12-18T20:59:00.308Z,9.83
2018-12-18T21:01:29.558Z,9.73
2018-12-18T21:03:59.976Z,9.33
2018-12-18T21:06:28.960Z,10.20
2018-12-18T21:08:57.905Z,9.77
2018-12-18T21:11:26.631Z,8.37
2018-12-18T21:13:55.784Z,8.63
2018-12-18T21:16:25.221Z,8.10
2018-12-18T21:18:53.721Z,7.90
2018-12-18T21:21:22.239Z,8.27
2018-12-18T21:23:50.748Z,8.43
2018-12-18T21:26:19.475Z,7.60
2018-12-18T21:28:48.308Z,7.73
2018-12-18T21:31:16.820Z,8.23
2018-12-18T21:33:45.348Z,8.17
2018-12-18T21:36:13.845Z,7.80
2018-12-18T21:38:42.420Z,8.03
2018-12-18T21:41:10.970Z,7.83
2018-12-18T21:43:39.649Z,7.87
2018-12-18T21:46:08.402Z,7.40
2018-12-18T21:48:38.231Z,7.63
2018-12-18T21:51:06.834Z,7.80
2018-12-18T21:53:35.367Z,8.00
2018-12-18T21:56:03.895Z,8.27
2018-12-18T21:58:32.381Z,7.93
2018-12-18T22:01:00.875Z,7.30
2018-12-18T22:03:29.352Z,7.93
2018-12-18T22:05:57.855Z,8.33
2018-12-18T22:08:27.382Z,7.97
2018-12-18T22:10:55.948Z,7.83
2018-12-18T22:13:24.443Z,7.37
2018-12-18T22:15:53.139Z,7.93
2018-12-18T22:18:21.619Z,7.43
2018-12-18T22:20:50.131Z,7.73
2018-12-18T22:23:18.610Z,6.57
2018-12-18T22:25:47.066Z,7.47
2018-12-18T22:28:15.563Z,7.27
2018-12-18T22:30:44.069Z,7.33
2018-12-18T22:33:12.424Z,7.37
2018-12-18T22:35:40.829Z,7.00
2018-12-18T22:38:09.251Z,6.70
2018-12-18T22:40:37.672Z,8.13
2018-12-18T22:43:06.067Z,6.37
2018-12-18T22:45:34.483Z,7.10
2018-12-18T22:48:02.894Z,7.10
2018-12-18T22:50:31.278Z,7.33
2018-12-18T22:52:59.663Z,6.80
2018-12-18T22:55:28.055Z,6.57
2018-12-18T22:57:56.452Z,6.43
2018-12-18T23:00:30.499Z,7.27
2018-12-18T23:02:58.870Z,5.97
2018-12-18T23:05:27.355Z,6.50
2018-12-18T23:07:55.873Z,5.13
2018-12-18T23:10:24.255Z,5.73
2018-12-18T23:12:52.700Z,6.00
2018-12-18T23:15:21.126Z,6.20
2018-12-18T23:17:49.557Z,6.33
2018-12-18T23:20:17.948Z,5.63
2018-12-18T23:22:46.352Z,5.13
2018-12-18T23:25:14.732Z,4.83
2018-12-18T23:27:43.107Z,6.23
2018-12-18T23:30:11.578Z,5.37
2018-12-18T23:32:39.940Z,5.70
2018-12-18T23:35:08.376Z,4.93
2018-12-18T23:37:36.763Z,5.20
2018-12-18T23:40:05.339Z,4.87
2018-12-18T23:42:33.769Z,5.20
2018-12-18T23:45:02.232Z,5.00
2018-12-18T23:47:30.671Z,4.77
2018-12-18T23:49:59.048Z,4.13
2018-12-18T23:52:27.603Z,4.10
2018-12-18T23:54:56.019Z,3.30
2018-12-18T23:57:24.429Z,3.60
2018-12-18T23:59:52.795Z,3.87
